sensor_id;sensor_type;location;lat;lon;timestamp;pressure;altitude;pressure_sealevel;temperature;humidity
16738;BME280;17906;47.684;10.806;2022-11-15T00:02:11;93205.25;;;-2.00;94.58
16738;BME280;17906;47.684;10.806;2022-11-15T00:04:39;93204.19;;;-2.14;94.16
16738;BME280;17906;47.684;10.806;2022-11-15T00:07:05;93204.09;;;-2.28;95.12
16738;BME280;17906;47.684;10.806;2022-11-15T00:09:32;93205.22;;;-2.31;95.75
16738;BME280;17906;47.684;10.806;2022-11-15T00:11:58;93199.41;;;-2.18;95.64
16738;BME280;17906;47.684;10.806;2022-11-15T00:14:25;93195.75;;;-2.25;96.60
16738;BME280;17906;47.684;10.806;2022-11-15T00:16:52;93194.22;;;-2.20;95.84
16738;BME280;17906;47.684;10.806;2022-11-15T00:19:18;93183.16;;;-2.32;97.65
16738;BME280;17906;47.684;10.806;2022-11-15T00:21:46;93190.19;;;-2.39;98.46
16738;BME280;17906;47.684;10.806;2022-11-15T00:24:13;93180.66;;;-2.25;96.88
16738;BME280;17906;47.684;10.806;2022-11-15T00:26:39;93184.97;;;-2.24;96.52
16738;BME280;17906;47.684;10.806;2022-11-15T00:29:06;93181.78;;;-2.19;95.69
16738;BME280;17906;47.684;10.806;2022-11-15T00:31:33;93184.31;;;-2.26;95.62
16738;BME280;17906;47.684;10.806;2022-11-15T00:33:59;93183.50;;;-2.26;96.36
16738;BME280;17906;47.684;10.806;2022-11-15T00:36:26;93178.88;;;-2.33;95.50
16738;BME280;17906;47.684;10.806;2022-11-15T00:38:54;93182.03;;;-2.29;94.46
16738;BME280;17906;47.684;10.806;2022-11-15T00:41:20;93187.00;;;-2.34;94.31
16738;BME280;17906;47.684;10.806;2022-11-15T00:43:47;93186.38;;;-2.44;94.06
16738;BME280;17906;47.684;10.806;2022-11-15T00:46:14;93182.25;;;-2.47;94.29
16738;BME280;17906;47.684;10.806;2022-11-15T00:48:40;93181.09;;;-2.52;94.50
16738;BME280;17906;47.684;10.806;2022-11-15T00:51:07;93175.19;;;-2.63;97.38
16738;BME280;17906;47.684;10.806;2022-11-15T00:53:33;93169.81;;;-2.54;98.41
16738;BME280;17906;47.684;10.806;2022-11-15T00:56:02;93168.81;;;-2.45;98.31
16738;BME280;17906;47.684;10.806;2022-11-15T00:58:29;93167.31;;;-2.48;98.68
16738;BME280;17906;47.684;10.806;2022-11-15T01:00:55;93173.63;;;-2.49;98.61
16738;BME280;17906;47.684;10.806;2022-11-15T01:03:22;93168.53;;;-2.58;98.89
16738;BME280;17906;47.684;10.806;2022-11-15T01:05:48;93165.34;;;-2.54;96.94
16738;BME280;17906;47.684;10.806;2022-11-15T01:08:16;93153.41;;;-2.50;97.34
16738;BME280;17906;47.684;10.806;2022-11-15T01:10:43;93158.00;;;-2.44;96.23
16738;BME280;17906;47.684;10.806;2022-11-15T01:13:10;93161.31;;;-2.42;96.69
16738;BME280;17906;47.684;10.806;2022-11-15T01:15:39;93167.44;;;-2.41;96.38
16738;BME280;17906;47.684;10.806;2022-11-15T01:18:06;93154.69;;;-2.46;95.29
16738;BME280;17906;47.684;10.806;2022-11-15T01:20:33;93154.41;;;-2.51;94.87
16738;BME280;17906;47.684;10.806;2022-11-15T01:23:00;93151.88;;;-2.44;95.83
16738;BME280;17906;47.684;10.806;2022-11-15T01:25:26;93147.28;;;-2.50;96.25
16738;BME280;17906;47.684;10.806;2022-11-15T01:27:53;93147.09;;;-2.49;95.33
16738;BME280;17906;47.684;10.806;2022-11-15T01:30:21;93141.63;;;-2.55;93.74
16738;BME280;17906;47.684;10.806;2022-11-15T01:32:47;93140.00;;;-2.65;94.42
16738;BME280;17906;47.684;10.806;2022-11-15T01:35:14;93140.25;;;-2.82;94.31
16738;BME280;17906;47.684;10.806;2022-11-15T01:37:41;93136.56;;;-2.73;94.60
16738;BME280;17906;47.684;10.806;2022-11-15T01:40:08;93129.97;;;-2.85;95.69
16738;BME280;17906;47.684;10.806;2022-11-15T01:42:35;93121.72;;;-3.07;96.81
16738;BME280;17906;47.684;10.806;2022-11-15T01:45:02;93129.66;;;-2.91;99.15
16738;BME280;17906;47.684;10.806;2022-11-15T01:47:34;93123.19;;;-2.88;99.03
16738;BME280;17906;47.684;10.806;2022-11-15T01:50:04;93115.03;;;-2.78;98.44
16738;BME280;17906;47.684;10.806;2022-11-15T01:52:33;93110.88;;;-2.73;98.13
16738;BME280;17906;47.684;10.806;2022-11-15T01:55:04;93114.34;;;-2.72;95.64
16738;BME280;17906;47.684;10.806;2022-11-15T01:57:31;93113.19;;;-2.70;94.85
16738;BME280;17906;47.684;10.806;2022-11-15T02:00:00;93106.06;;;-2.77;94.99
16738;BME280;17906;47.684;10.806;2022-11-15T02:02:29;93109.25;;;-2.90;95.70
16738;BME280;17906;47.684;10.806;2022-11-15T02:04:56;93099.63;;;-2.83;95.51
16738;BME280;17906;47.684;10.806;2022-11-15T02:07:23;93093.63;;;-2.77;96.04
16738;BME280;17906;47.684;10.806;2022-11-15T02:09:50;93102.41;;;-2.76;95.46
16738;BME280;17906;47.684;10.806;2022-11-15T02:12:19;93100.75;;;-2.69;96.16
16738;BME280;17906;47.684;10.806;2022-11-15T02:14:49;93091.97;;;-2.70;95.35
16738;BME280;17906;47.684;10.806;2022-11-15T02:20:47;93090.03;;;-2.84;96.55
16738;BME280;17906;47.684;10.806;2022-11-15T02:29:29;93079.56;;;-2.85;98.36
16738;BME280;17906;47.684;10.806;2022-11-15T02:32:06;93081.75;;;-2.97;98.72
16738;BME280;17906;47.684;10.806;2022-11-15T02:34:43;93076.19;;;-3.10;99.92
16738;BME280;17906;47.684;10.806;2022-11-15T02:37:16;93063.91;;;-3.03;100.00
16738;BME280;17906;47.684;10.806;2022-11-15T02:39:49;93062.56;;;-3.07;98.55
16738;BME280;17906;47.684;10.806;2022-11-15T02:42:21;93069.88;;;-3.09;99.48
16738;BME280;17906;47.684;10.806;2022-11-15T02:45:19;93066.56;;;-3.11;99.34
16738;BME280;17906;47.684;10.806;2022-11-15T02:47:52;93073.72;;;-3.12;98.67
16738;BME280;17906;47.684;10.806;2022-11-15T02:50:24;93060.00;;;-3.24;99.45
16738;BME280;17906;47.684;10.806;2022-11-15T02:52:52;93051.50;;;-3.11;97.82
16738;BME280;17906;47.684;10.806;2022-11-15T02:55:27;93053.47;;;-3.05;98.25
16738;BME280;17906;47.684;10.806;2022-11-15T02:58:03;93048.81;;;-3.03;98.43
16738;BME280;17906;47.684;10.806;2022-11-15T03:00:34;93047.50;;;-3.07;97.62
16738;BME280;17906;47.684;10.806;2022-11-15T03:03:21;93046.47;;;-2.98;97.88
16738;BME280;17906;47.684;10.806;2022-11-15T03:05:53;93042.34;;;-3.00;97.98
16738;BME280;17906;47.684;10.806;2022-11-15T03:08:29;93050.13;;;-2.99;97.23
16738;BME280;17906;47.684;10.806;2022-11-15T03:11:03;93047.47;;;-2.99;97.87
16738;BME280;17906;47.684;10.806;2022-11-15T03:13:37;93046.28;;;-2.96;96.94
16738;BME280;17906;47.684;10.806;2022-11-15T03:16:11;93039.31;;;-2.89;97.00
16738;BME280;17906;47.684;10.806;2022-11-15T03:18:45;93039.41;;;-2.74;96.42
16738;BME280;17906;47.684;10.806;2022-11-15T03:21:15;93042.13;;;-2.82;95.21
16738;BME280;17906;47.684;10.806;2022-11-15T03:23:46;93039.84;;;-2.94;95.82
16738;BME280;17906;47.684;10.806;2022-11-15T03:26:16;93035.63;;;-3.19;96.34
16738;BME280;17906;47.684;10.806;2022-11-15T03:28:48;93034.47;;;-3.16;96.89
16738;BME280;17906;47.684;10.806;2022-11-15T03:31:19;93034.13;;;-3.13;96.16
16738;BME280;17906;47.684;10.806;2022-11-15T03:34:11;93044.84;;;-3.07;96.01
16738;BME280;17906;47.684;10.806;2022-11-15T03:36:41;93033.59;;;-3.09;97.06
16738;BME280;17906;47.684;10.806;2022-11-15T03:39:09;93024.88;;;-3.26;97.28
16738;BME280;17906;47.684;10.806;2022-11-15T03:41:39;93032.50;;;-3.31;98.76
16738;BME280;17906;47.684;10.806;2022-11-15T03:44:13;93030.00;;;-3.24;98.39
16738;BME280;17906;47.684;10.806;2022-11-15T03:46:46;93016.22;;;-3.11;97.47
16738;BME280;17906;47.684;10.806;2022-11-15T03:49:17;93021.34;;;-3.18;98.42
16738;BME280;17906;47.684;10.806;2022-11-15T03:51:46;93029.63;;;-3.13;97.69
16738;BME280;17906;47.684;10.806;2022-11-15T03:54:13;93022.34;;;-3.19;97.30
16738;BME280;17906;47.684;10.806;2022-11-15T03:56:40;93023.88;;;-3.25;96.84
16738;BME280;17906;47.684;10.806;2022-11-15T03:59:06;93010.81;;;-3.26;96.93
16738;BME280;17906;47.684;10.806;2022-11-15T04:01:33;93010.66;;;-3.33;96.54
16738;BME280;17906;47.684;10.806;2022-11-15T04:03:59;93011.50;;;-3.40;95.77
16738;BME280;17906;47.684;10.806;2022-11-15T04:06:27;93014.16;;;-3.40;96.60
16738;BME280;17906;47.684;10.806;2022-11-15T04:08:54;93003.72;;;-3.42;97.40
16738;BME280;17906;47.684;10.806;2022-11-15T04:11:20;93003.59;;;-3.49;99.07
16738;BME280;17906;47.684;10.806;2022-11-15T04:13:47;93005.19;;;-3.39;97.91
16738;BME280;17906;47.684;10.806;2022-11-15T04:16:14;93008.72;;;-3.47;97.80
16738;BME280;17906;47.684;10.806;2022-11-15T04:18:40;93000.41;;;-3.44;99.20
16738;BME280;17906;47.684;10.806;2022-11-15T04:21:07;93008.38;;;-3.44;99.28
16738;BME280;17906;47.684;10.806;2022-11-15T04:23:53;93006.66;;;-3.29;97.33
16738;BME280;17906;47.684;10.806;2022-11-15T04:26:37;93001.22;;;-3.27;97.02
16738;BME280;17906;47.684;10.806;2022-11-15T04:29:03;93002.69;;;-3.33;95.73
16738;BME280;17906;47.684;10.806;2022-11-15T04:31:59;93005.88;;;-3.45;94.70
16738;BME280;17906;47.684;10.806;2022-11-15T04:34:26;92989.66;;;-3.51;94.92
16738;BME280;17906;47.684;10.806;2022-11-15T04:36:52;93002.13;;;-3.59;94.79
16738;BME280;17906;47.684;10.806;2022-11-15T04:39:38;92996.66;;;-3.58;97.45
16738;BME280;17906;47.684;10.806;2022-11-15T04:42:05;92984.69;;;-3.45;96.68
16738;BME280;17906;47.684;10.806;2022-11-15T04:44:31;92981.72;;;-3.51;97.54
16738;BME280;17906;47.684;10.806;2022-11-15T04:46:58;92985.03;;;-3.49;96.80
16738;BME280;17906;47.684;10.806;2022-11-15T04:49:24;92980.59;;;-3.56;97.62
16738;BME280;17906;47.684;10.806;2022-11-15T04:51:51;92978.75;;;-3.56;97.37
16738;BME280;17906;47.684;10.806;2022-11-15T04:54:18;92978.41;;;-3.44;96.46
16738;BME280;17906;47.684;10.806;2022-11-15T04:56:46;92975.56;;;-3.43;95.87
16738;BME280;17906;47.684;10.806;2022-11-15T04:59:13;92969.16;;;-3.57;96.03
16738;BME280;17906;47.684;10.806;2022-11-15T05:01:39;92966.16;;;-3.45;94.66
16738;BME280;17906;47.684;10.806;2022-11-15T05:04:07;92961.72;;;-3.61;93.76
16738;BME280;17906;47.684;10.806;2022-11-15T05:06:45;92964.53;;;-3.63;96.10
16738;BME280;17906;47.684;10.806;2022-11-15T05:09:12;92958.41;;;-3.55;98.20
16738;BME280;17906;47.684;10.806;2022-11-15T05:11:39;92952.09;;;-3.54;97.30
16738;BME280;17906;47.684;10.806;2022-11-15T05:14:07;92955.59;;;-3.62;98.62
16738;BME280;17906;47.684;10.806;2022-11-15T05:16:34;92948.97;;;-3.58;98.62
16738;BME280;17906;47.684;10.806;2022-11-15T05:19:01;92952.28;;;-3.56;98.58
16738;BME280;17906;47.684;10.806;2022-11-15T05:21:28;92951.94;;;-3.53;97.81
16738;BME280;17906;47.684;10.806;2022-11-15T05:23:55;92945.69;;;-3.60;97.60
16738;BME280;17906;47.684;10.806;2022-11-15T05:26:22;92946.97;;;-3.56;98.07
16738;BME280;17906;47.684;10.806;2022-11-15T05:28:52;92942.31;;;-3.45;94.86
16738;BME280;17906;47.684;10.806;2022-11-15T05:31:20;92952.09;;;-3.54;95.41
16738;BME280;17906;47.684;10.806;2022-11-15T05:33:48;92951.25;;;-3.47;94.49
16738;BME280;17906;47.684;10.806;2022-11-15T05:36:18;92957.72;;;-3.49;94.65
16738;BME280;17906;47.684;10.806;2022-11-15T05:38:48;92956.22;;;-3.52;95.02
16738;BME280;17906;47.684;10.806;2022-11-15T05:41:16;92952.13;;;-3.62;94.28
16738;BME280;17906;47.684;10.806;2022-11-15T05:43:46;92949.63;;;-3.56;95.13
16738;BME280;17906;47.684;10.806;2022-11-15T05:46:14;92944.34;;;-3.64;98.41
16738;BME280;17906;47.684;10.806;2022-11-15T05:48:45;92940.75;;;-3.79;96.41
16738;BME280;17906;47.684;10.806;2022-11-15T05:51:14;92944.06;;;-3.85;96.71
16738;BME280;17906;47.684;10.806;2022-11-15T05:53:43;92949.19;;;-3.84;97.21
16738;BME280;17906;47.684;10.806;2022-11-15T05:56:10;92953.81;;;-3.78;97.80
16738;BME280;17906;47.684;10.806;2022-11-15T05:58:37;92943.06;;;-3.76;98.09
16738;BME280;17906;47.684;10.806;2022-11-15T06:01:04;92950.16;;;-3.68;99.93
16738;BME280;17906;47.684;10.806;2022-11-15T06:03:31;92941.22;;;-3.67;99.48
16738;BME280;17906;47.684;10.806;2022-11-15T06:05:59;92931.13;;;-3.72;98.54
16738;BME280;17906;47.684;10.806;2022-11-15T06:08:25;92923.16;;;-3.64;98.63
16738;BME280;17906;47.684;10.806;2022-11-15T06:10:53;92921.84;;;-3.68;99.19
16738;BME280;17906;47.684;10.806;2022-11-15T06:13:19;92922.03;;;-3.69;98.18
16738;BME280;17906;47.684;10.806;2022-11-15T06:15:46;92925.97;;;-3.65;96.09
16738;BME280;17906;47.684;10.806;2022-11-15T06:18:12;92928.78;;;-3.59;95.17
16738;BME280;17906;47.684;10.806;2022-11-15T06:20:39;92919.56;;;-3.71;95.60
16738;BME280;17906;47.684;10.806;2022-11-15T06:23:07;92924.34;;;-3.66;96.14
16738;BME280;17906;47.684;10.806;2022-11-15T06:25:34;92921.16;;;-3.62;97.21
16738;BME280;17906;47.684;10.806;2022-11-15T06:28:00;92911.56;;;-3.63;96.36
16738;BME280;17906;47.684;10.806;2022-11-15T06:30:27;92908.00;;;-3.86;96.37
16738;BME280;17906;47.684;10.806;2022-11-15T06:32:59;92911.31;;;-3.84;94.61
16738;BME280;17906;47.684;10.806;2022-11-15T06:35:26;92902.72;;;-3.86;95.74
16738;BME280;17906;47.684;10.806;2022-11-15T06:37:53;92905.53;;;-3.88;95.51
16738;BME280;17906;47.684;10.806;2022-11-15T06:40:21;92917.41;;;-3.84;97.07
16738;BME280;17906;47.684;10.806;2022-11-15T06:42:47;92920.91;;;-3.83;96.83
16738;BME280;17906;47.684;10.806;2022-11-15T06:45:14;92905.72;;;-3.89;97.78
16738;BME280;17906;47.684;10.806;2022-11-15T06:47:44;92928.00;;;-3.84;97.07
16738;BME280;17906;47.684;10.806;2022-11-15T06:50:11;92928.97;;;-3.68;97.04
16738;BME280;17906;47.684;10.806;2022-11-15T06:52:38;92925.97;;;-3.65;98.72
16738;BME280;17906;47.684;10.806;2022-11-15T06:55:06;92933.81;;;-3.80;96.76
16738;BME280;17906;47.684;10.806;2022-11-15T06:57:34;92914.13;;;-3.86;98.53
16738;BME280;17906;47.684;10.806;2022-11-15T07:00:02;92919.94;;;-3.90;97.76
16738;BME280;17906;47.684;10.806;2022-11-15T07:02:29;92915.75;;;-3.68;97.64
16738;BME280;17906;47.684;10.806;2022-11-15T07:04:56;92913.38;;;-3.63;99.16
16738;BME280;17906;47.684;10.806;2022-11-15T07:07:23;92909.69;;;-3.46;98.28
16738;BME280;17906;47.684;10.806;2022-11-15T07:09:49;92916.84;;;-3.15;96.49
16738;BME280;17906;47.684;10.806;2022-11-15T07:12:16;92915.28;;;-2.79;95.63
16738;BME280;17906;47.684;10.806;2022-11-15T07:14:44;92911.34;;;-2.60;94.07
16738;BME280;17906;47.684;10.806;2022-11-15T07:17:11;92910.78;;;-2.33;93.12
16738;BME280;17906;47.684;10.806;2022-11-15T07:19:37;92910.63;;;-2.16;92.65
16738;BME280;17906;47.684;10.806;2022-11-15T07:22:04;92898.41;;;-1.88;91.72
16738;BME280;17906;47.684;10.806;2022-11-15T07:24:31;92904.38;;;-1.71;91.37
16738;BME280;17906;47.684;10.806;2022-11-15T07:26:57;92895.84;;;-1.52;90.80
16738;BME280;17906;47.684;10.806;2022-11-15T07:29:24;92901.25;;;-1.30;88.51
16738;BME280;17906;47.684;10.806;2022-11-15T07:31:52;92897.47;;;-1.21;89.97
16738;BME280;17906;47.684;10.806;2022-11-15T07:34:18;92884.44;;;-1.16;89.07
16738;BME280;17906;47.684;10.806;2022-11-15T07:36:45;92895.44;;;-0.83;88.91
16738;BME280;17906;47.684;10.806;2022-11-15T07:39:12;92884.81;;;-0.62;91.50
16738;BME280;17906;47.684;10.806;2022-11-15T07:41:39;92875.81;;;-0.39;88.13
16738;BME280;17906;47.684;10.806;2022-11-15T07:44:06;92872.72;;;-0.43;89.82
16738;BME280;17906;47.684;10.806;2022-11-15T07:46:32;92882.66;;;-0.73;91.79
16738;BME280;17906;47.684;10.806;2022-11-15T07:49:00;92875.13;;;-0.69;93.52
16738;BME280;17906;47.684;10.806;2022-11-15T07:51:27;92869.59;;;-0.68;91.89
16738;BME280;17906;47.684;10.806;2022-11-15T07:53:54;92866.91;;;-0.53;91.40
16738;BME280;17906;47.684;10.806;2022-11-15T07:56:20;92871.91;;;-0.43;90.78
16738;BME280;17906;47.684;10.806;2022-11-15T07:58:47;92867.34;;;-0.00;90.78
16738;BME280;17906;47.684;10.806;2022-11-15T08:01:15;92857.09;;;0.66;90.18
16738;BME280;17906;47.684;10.806;2022-11-15T08:03:42;92846.38;;;1.14;84.82
16738;BME280;17906;47.684;10.806;2022-11-15T08:06:10;92850.78;;;1.68;82.88
16738;BME280;17906;47.684;10.806;2022-11-15T08:08:36;92846.91;;;1.84;86.29
16738;BME280;17906;47.684;10.806;2022-11-15T08:11:03;92840.53;;;1.85;86.04
16738;BME280;17906;47.684;10.806;2022-11-15T08:13:30;92831.88;;;1.89;86.93
16738;BME280;17906;47.684;10.806;2022-11-15T08:16:00;92845.69;;;1.86;84.94
16738;BME280;17906;47.684;10.806;2022-11-15T08:18:27;92838.88;;;1.90;84.45
16738;BME280;17906;47.684;10.806;2022-11-15T08:20:58;92844.63;;;2.20;83.29
16738;BME280;17906;47.684;10.806;2022-11-15T08:23:27;92831.97;;;2.74;81.22
16738;BME280;17906;47.684;10.806;2022-11-15T08:25:59;92815.28;;;3.55;78.67
16738;BME280;17906;47.684;10.806;2022-11-15T08:28:26;92803.81;;;4.47;74.67
16738;BME280;17906;47.684;10.806;2022-11-15T08:30:53;92809.34;;;5.07;72.25
16738;BME280;17906;47.684;10.806;2022-11-15T08:33:19;92804.59;;;5.81;68.74
16738;BME280;17906;47.684;10.806;2022-11-15T08:35:46;92811.19;;;6.38;67.50
16738;BME280;17906;47.684;10.806;2022-11-15T08:38:12;92803.44;;;6.77;65.97
16738;BME280;17906;47.684;10.806;2022-11-15T08:40:41;92807.91;;;7.23;64.15
16738;BME280;17906;47.684;10.806;2022-11-15T08:43:07;92793.13;;;7.38;64.05
16738;BME280;17906;47.684;10.806;2022-11-15T08:45:35;92792.13;;;8.01;62.98
16738;BME280;17906;47.684;10.806;2022-11-15T08:48:02;92787.06;;;8.55;60.94
16738;BME280;17906;47.684;10.806;2022-11-15T08:50:29;92782.22;;;9.34;58.11
16738;BME280;17906;47.684;10.806;2022-11-15T08:52:56;92777.72;;;9.88;56.85
16738;BME280;17906;47.684;10.806;2022-11-15T08:55:23;92773.81;;;10.38;55.48
16738;BME280;17906;47.684;10.806;2022-11-15T08:57:50;92772.75;;;10.76;55.12
16738;BME280;17906;47.684;10.806;2022-11-15T09:00:17;92772.03;;;11.28;53.37
16738;BME280;17906;47.684;10.806;2022-11-15T09:02:45;92774.00;;;11.53;52.88
16738;BME280;17906;47.684;10.806;2022-11-15T09:05:12;92752.41;;;11.84;52.86
16738;BME280;17906;47.684;10.806;2022-11-15T09:07:38;92752.97;;;12.11;52.82
16738;BME280;17906;47.684;10.806;2022-11-15T09:10:06;92757.88;;;12.04;52.85
16738;BME280;17906;47.684;10.806;2022-11-15T09:12:32;92743.78;;;12.63;50.92
16738;BME280;17906;47.684;10.806;2022-11-15T09:15:00;92750.06;;;12.69;50.54
16738;BME280;17906;47.684;10.806;2022-11-15T09:17:27;92748.38;;;12.88;50.63
16738;BME280;17906;47.684;10.806;2022-11-15T09:19:53;92742.09;;;12.98;50.89
16738;BME280;17906;47.684;10.806;2022-11-15T09:22:20;92745.50;;;13.54;49.78
16738;BME280;17906;47.684;10.806;2022-11-15T09:24:47;92743.63;;;13.55;49.71
16738;BME280;17906;47.684;10.806;2022-11-15T09:27:13;92757.53;;;13.48;49.81
16738;BME280;17906;47.684;10.806;2022-11-15T09:29:40;92738.09;;;13.70;49.89
16738;BME280;17906;47.684;10.806;2022-11-15T09:32:08;92736.72;;;14.17;49.55
16738;BME280;17906;47.684;10.806;2022-11-15T09:34:35;92739.25;;;14.47;48.70
16738;BME280;17906;47.684;10.806;2022-11-15T09:37:02;92729.00;;;14.68;45.77
16738;BME280;17906;47.684;10.806;2022-11-15T09:39:28;92726.94;;;14.55;43.98
16738;BME280;17906;47.684;10.806;2022-11-15T09:45:10;92731.81;;;15.16;44.67
16738;BME280;17906;47.684;10.806;2022-11-15T09:48:12;92734.56;;;14.87;44.01
16738;BME280;17906;47.684;10.806;2022-11-15T09:50:48;92728.34;;;15.40;41.82
16738;BME280;17906;47.684;10.806;2022-11-15T09:53:22;92728.25;;;15.16;41.65
16738;BME280;17906;47.684;10.806;2022-11-15T09:55:58;92725.81;;;14.90;45.03
16738;BME280;17906;47.684;10.806;2022-11-15T09:58:30;92714.97;;;14.80;43.73
16738;BME280;17906;47.684;10.806;2022-11-15T10:01:03;92714.75;;;15.29;44.14
16738;BME280;17906;47.684;10.806;2022-11-15T10:03:34;92717.63;;;15.14;43.97
16738;BME280;17906;47.684;10.806;2022-11-15T10:06:02;92705.09;;;15.37;43.71
16738;BME280;17906;47.684;10.806;2022-11-15T10:08:45;92688.56;;;15.52;41.98
16738;BME280;17906;47.684;10.806;2022-11-15T10:11:17;92682.03;;;15.72;40.11
16738;BME280;17906;47.684;10.806;2022-11-15T10:13:46;92677.00;;;16.36;41.91
16738;BME280;17906;47.684;10.806;2022-11-15T10:16:26;92676.50;;;15.77;41.86
16738;BME280;17906;47.684;10.806;2022-11-15T10:19:04;92672.72;;;15.73;41.42
16738;BME280;17906;47.684;10.806;2022-11-15T10:21:40;92672.97;;;15.29;43.45
16738;BME280;17906;47.684;10.806;2022-11-15T10:24:13;92683.75;;;14.91;41.77
16738;BME280;17906;47.684;10.806;2022-11-15T10:26:46;92675.03;;;14.65;45.45
16738;BME280;17906;47.684;10.806;2022-11-15T10:29:18;92674.03;;;14.51;43.05
16738;BME280;17906;47.684;10.806;2022-11-15T10:31:44;92671.56;;;14.55;43.51
16738;BME280;17906;47.684;10.806;2022-11-15T10:34:14;92666.28;;;14.92;45.68
16738;BME280;17906;47.684;10.806;2022-11-15T10:36:45;92665.63;;;14.76;45.79
16738;BME280;17906;47.684;10.806;2022-11-15T10:39:13;92658.28;;;15.01;42.82
16738;BME280;17906;47.684;10.806;2022-11-15T10:41:41;92661.59;;;14.98;43.58
16738;BME280;17906;47.684;10.806;2022-11-15T10:44:19;92653.13;;;14.41;44.92
16738;BME280;17906;47.684;10.806;2022-11-15T10:46:48;92645.25;;;14.35;47.15
16738;BME280;17906;47.684;10.806;2022-11-15T10:49:18;92650.38;;;14.46;43.55
16738;BME280;17906;47.684;10.806;2022-11-15T10:51:47;92642.78;;;14.38;44.82
16738;BME280;17906;47.684;10.806;2022-11-15T10:54:17;92645.03;;;14.31;45.55
16738;BME280;17906;47.684;10.806;2022-11-15T10:56:49;92630.88;;;14.58;44.24
16738;BME280;17906;47.684;10.806;2022-11-15T10:59:24;92621.75;;;14.97;42.72
16738;BME280;17906;47.684;10.806;2022-11-15T11:01:53;92616.72;;;15.28;43.83
16738;BME280;17906;47.684;10.806;2022-11-15T11:04:23;92613.06;;;14.42;43.08
16738;BME280;17906;47.684;10.806;2022-11-15T11:06:52;92609.97;;;14.48;43.92
16738;BME280;17906;47.684;10.806;2022-11-15T11:09:28;92609.88;;;14.83;44.74
16738;BME280;17906;47.684;10.806;2022-11-15T11:11:55;92603.59;;;14.58;43.76
16738;BME280;17906;47.684;10.806;2022-11-15T11:14:24;92598.78;;;14.50;43.17
16738;BME280;17906;47.684;10.806;2022-11-15T11:16:54;92589.44;;;14.56;44.61
16738;BME280;17906;47.684;10.806;2022-11-15T11:19:45;92587.66;;;14.70;45.52
16738;BME280;17906;47.684;10.806;2022-11-15T11:22:20;92585.16;;;14.74;43.60
16738;BME280;17906;47.684;10.806;2022-11-15T11:24:56;92580.28;;;14.13;42.38
16738;BME280;17906;47.684;10.806;2022-11-15T11:27:36;92575.69;;;13.74;43.34
16738;BME280;17906;47.684;10.806;2022-11-15T11:30:09;92576.56;;;13.64;44.84
16738;BME280;17906;47.684;10.806;2022-11-15T11:32:49;92582.09;;;13.54;42.56
16738;BME280;17906;47.684;10.806;2022-11-15T11:35:22;92576.69;;;13.49;41.61
16738;BME280;17906;47.684;10.806;2022-11-15T11:37:56;92571.50;;;13.87;43.75
16738;BME280;17906;47.684;10.806;2022-11-15T17:58:20;92431.16;;;4.86;90.20
16738;BME280;17906;47.684;10.806;2022-11-15T18:07:43;92414.22;;;4.97;88.14
16738;BME280;17906;47.684;10.806;2022-11-15T18:24:53;92398.69;;;4.52;92.36
16738;BME280;17906;47.684;10.806;2022-11-15T18:27:20;92387.28;;;4.45;91.03
16738;BME280;17906;47.684;10.806;2022-11-15T18:29:46;92380.38;;;4.37;91.35
16738;BME280;17906;47.684;10.806;2022-11-15T18:32:13;92380.13;;;4.16;93.42
16738;BME280;17906;47.684;10.806;2022-11-15T18:34:42;92388.63;;;4.13;94.00
16738;BME280;17906;47.684;10.806;2022-11-15T18:37:08;92384.09;;;4.25;93.15
16738;BME280;17906;47.684;10.806;2022-11-15T18:39:35;92381.06;;;4.21;93.12
16738;BME280;17906;47.684;10.806;2022-11-15T18:42:04;92386.44;;;4.21;92.18
16738;BME280;17906;47.684;10.806;2022-11-15T18:44:30;92379.63;;;4.07;93.70
16738;BME280;17906;47.684;10.806;2022-11-15T18:46:57;92379.78;;;4.24;92.38
16738;BME280;17906;47.684;10.806;2022-11-15T18:49:24;92382.22;;;4.14;92.07
16738;BME280;17906;47.684;10.806;2022-11-15T18:51:50;92375.91;;;4.08;92.39
16738;BME280;17906;47.684;10.806;2022-11-15T18:54:17;92378.00;;;4.06;93.02
16738;BME280;17906;47.684;10.806;2022-11-15T18:56:44;92377.91;;;4.13;93.46
16738;BME280;17906;47.684;10.806;2022-11-15T18:59:13;92378.31;;;3.98;93.37
16738;BME280;17906;47.684;10.806;2022-11-15T19:01:42;92381.03;;;4.09;93.53
16738;BME280;17906;47.684;10.806;2022-11-15T19:04:13;92380.78;;;3.99;93.05
16738;BME280;17906;47.684;10.806;2022-11-15T19:06:41;92370.16;;;3.93;92.25
16738;BME280;17906;47.684;10.806;2022-11-15T19:09:09;92363.25;;;3.85;94.42
16738;BME280;17906;47.684;10.806;2022-11-15T19:11:37;92360.44;;;3.68;94.79
16738;BME280;17906;47.684;10.806;2022-11-15T19:14:06;92352.75;;;3.72;93.80
16738;BME280;17906;47.684;10.806;2022-11-15T19:16:37;92350.75;;;3.67;93.70
16738;BME280;17906;47.684;10.806;2022-11-15T19:19:07;92347.41;;;3.53;94.52
16738;BME280;17906;47.684;10.806;2022-11-15T19:21:35;92341.53;;;3.63;95.36
16738;BME280;17906;47.684;10.806;2022-11-15T19:24:02;92343.88;;;3.71;94.44
16738;BME280;17906;47.684;10.806;2022-11-15T19:26:29;92331.88;;;3.74;93.71
16738;BME280;17906;47.684;10.806;2022-11-15T19:28:57;92343.06;;;3.71;93.16
16738;BME280;17906;47.684;10.806;2022-11-15T19:31:26;92347.13;;;3.62;92.85
16738;BME280;17906;47.684;10.806;2022-11-15T19:33:55;92335.84;;;3.71;92.84
16738;BME280;17906;47.684;10.806;2022-11-15T19:36:26;92339.00;;;3.68;92.68
16738;BME280;17906;47.684;10.806;2022-11-15T19:38:54;92336.06;;;3.70;93.86
16738;BME280;17906;47.684;10.806;2022-11-15T19:41:22;92339.25;;;3.48;94.74
16738;BME280;17906;47.684;10.806;2022-11-15T19:43:50;92338.31;;;3.55;94.58
16738;BME280;17906;47.684;10.806;2022-11-15T19:46:18;92334.47;;;3.50;92.33
16738;BME280;17906;47.684;10.806;2022-11-15T19:48:46;92331.88;;;3.44;92.48
16738;BME280;17906;47.684;10.806;2022-11-15T19:51:15;92321.75;;;3.46;92.87
16738;BME280;17906;47.684;10.806;2022-11-15T19:53:44;92322.97;;;3.32;94.23
16738;BME280;17906;47.684;10.806;2022-11-15T19:56:12;92319.97;;;3.40;94.53